KMVE

Details ICAO KMVE
Name MONTEVIDEO CHIPPEWA CO
Region United States
Timezone America/Chicago (UTC-5.0)
Plans Departing 4
Arriving 0
Stats Elevation 1,034 ft / 315 m (AMSL)
Location 44.969314° -95.710402°
Runways 2
Magnetic Variation 2.150° E
Sunrise 2018-05-24 10:46:27 UTC / 2018-05-24 05:46:27 Local
Sunset 2018-05-25 01:55:49 UTC / 2018-05-24 20:55:49 Local
Advertisement - Login to hide

Runways

ID Width Length Bearing (true) Bearing (mag) Surface Threshold Offset Overrun Length
03 165 ft / 50 m 2,399 ft / 731 m 39.72° 37.57° Grass 0 ft / 0 m 0 ft / 0 m
14 75 ft / 23 m 3,997 ft / 1,218 m 142.83° 140.68° Asphalt 0 ft / 0 m 0 ft / 0 m
21 165 ft / 50 m 2,399 ft / 731 m 219.72° 217.57° Grass 0 ft / 0 m 0 ft / 0 m
32 75 ft / 23 m 3,997 ft / 1,218 m 322.83° 320.68° Asphalt 0 ft / 0 m 0 ft / 0 m

Map

Weather


0- 5 10 15 20 25 30 35+ Temperature / ° C

Clouds and Precipitation
Forecast for 2018-05-24 12:00 UTC. Updated 5 hours ago

Ground ~20,000 ft ~40,000 ft Winds

METAR

KMVE 241555Z AUTO 24008G16KT 10SM SCT090 25/18 A2993 RMK AO2

TAF

Not found

Frequencies

Unicom 122.80 MHz CTAF/UNICOM
Warning: Do not use this data for real-world aviation or navigation. No guarantee of current accuracy is given.